createdAt,value
2023-05-18T00:00:11.542Z,11.17
2023-05-18T00:02:40.899Z,7.50
2023-05-18T00:05:10.277Z,8.27
2023-05-18T00:07:39.503Z,5.83
2023-05-18T00:10:09.160Z,6.70
2023-05-18T00:12:37.333Z,7.10
2023-05-18T00:15:06.411Z,8.20
2023-05-18T00:17:36.227Z,6.23
2023-05-18T00:20:05.180Z,9.70
2023-05-18T00:22:33.592Z,6.03
2023-05-18T00:25:01.828Z,5.47
2023-05-18T00:27:29.951Z,6.40
2023-05-18T00:29:58.117Z,6.13
2023-05-18T00:32:26.436Z,7.07
2023-05-18T00:34:56.099Z,6.73
2023-05-18T00:37:24.326Z,4.90
2023-05-18T00:39:52.702Z,6.30
2023-05-18T00:42:20.991Z,6.00
2023-05-18T00:44:49.130Z,5.63
2023-05-18T00:47:18.529Z,5.30
2023-05-18T00:49:46.684Z,5.80
2023-05-18T00:52:17.314Z,8.40
2023-05-18T00:54:45.850Z,4.73
2023-05-18T00:57:14.197Z,5.63
2023-05-18T00:59:42.671Z,5.40
2023-05-18T01:02:12.206Z,6.03
2023-05-18T01:04:41.429Z,5.90
2023-05-18T01:07:10.033Z,5.67
2023-05-18T01:09:39.764Z,5.60
2023-05-18T01:12:19.137Z,5.53
2023-05-18T01:14:53.612Z,7.47
2023-05-18T01:17:33.622Z,4.97
2023-05-18T01:20:19.944Z,8.13
2023-05-18T01:23:14.115Z,5.70
2023-05-18T01:25:51.297Z,7.70
2023-05-18T01:28:26.604Z,6.80
2023-05-18T01:30:56.352Z,6.57
2023-05-18T01:33:25.513Z,5.63
2023-05-18T01:35:54.076Z,7.50
2023-05-18T01:38:25.175Z,7.10
2023-05-18T01:41:00.114Z,5.33
2023-05-18T01:43:35.270Z,8.97
2023-05-18T01:46:11.338Z,7.33
2023-05-18T01:48:43.728Z,6.53
2023-05-18T01:51:15.234Z,6.83
2023-05-18T01:53:47.561Z,5.63
2023-05-18T01:56:16.432Z,6.10
2023-05-18T01:58:46.623Z,7.57
2023-05-18T02:01:20.187Z,6.90
2023-05-18T02:03:48.663Z,5.20
2023-05-18T02:06:17.184Z,7.50
2023-05-18T02:08:45.846Z,7.17
2023-05-18T02:11:14.310Z,6.13
2023-05-18T02:13:42.633Z,9.10
2023-05-18T02:16:12.431Z,7.07
2023-05-18T02:18:40.692Z,5.77
2023-05-18T02:21:10.534Z,8.07
2023-05-18T02:23:38.783Z,6.00
2023-05-18T02:26:08.928Z,7.37
2023-05-18T02:28:39.968Z,5.47
2023-05-18T02:31:09.210Z,6.33
2023-05-18T02:33:40.897Z,6.30
2023-05-18T02:36:10.563Z,7.17
2023-05-18T02:38:39.655Z,5.50
2023-05-18T02:41:08.151Z,8.10
2023-05-18T02:43:36.773Z,8.60
2023-05-18T02:46:05.634Z,8.43
2023-05-18T02:48:34.930Z,7.43
2023-05-18T02:51:04.699Z,7.30
2023-05-18T02:53:33.684Z,6.40
2023-05-18T02:56:08.665Z,7.67
2023-05-18T02:58:46.087Z,12.10
2023-05-18T03:01:21.045Z,10.37
2023-05-18T03:03:53.102Z,6.47
2023-05-18T03:06:26.485Z,7.73
2023-05-18T03:08:56.310Z,6.30
2023-05-18T03:11:31.152Z,9.17
2023-05-18T03:13:59.369Z,7.43
2023-05-18T03:16:28.703Z,7.60
2023-05-18T03:18:58.999Z,7.20
2023-05-18T03:21:36.042Z,6.13
2023-05-18T03:24:04.867Z,9.30
2023-05-18T03:26:35.918Z,6.63
2023-05-18T03:29:05.369Z,6.13
2023-05-18T03:31:33.714Z,7.40
2023-05-18T03:34:03.303Z,5.73
2023-05-18T03:36:32.841Z,5.50
2023-05-18T03:39:01.005Z,6.17
2023-05-18T03:41:29.994Z,9.33
2023-05-18T03:43:58.370Z,7.00
2023-05-18T03:46:27.301Z,8.27
2023-05-18T03:48:55.710Z,6.40
2023-05-18T03:51:32.390Z,7.60
2023-05-18T03:54:01.819Z,6.23
2023-05-18T03:56:31.247Z,7.13
2023-05-18T03:59:00.257Z,7.70
2023-05-18T04:01:30.397Z,6.30
2023-05-18T04:03:58.837Z,8.27
2023-05-18T04:06:28.036Z,8.27
2023-05-18T04:08:57.561Z,7.37
2023-05-18T04:11:27.159Z,9.53
2023-05-18T04:13:55.356Z,6.60
2023-05-18T04:16:23.514Z,6.40
2023-05-18T04:18:53.140Z,6.00
2023-05-18T04:21:23.100Z,8.00
2023-05-18T04:23:51.305Z,6.20
2023-05-18T04:26:20.979Z,8.20
2023-05-18T04:28:50.031Z,6.87
2023-05-18T04:31:18.863Z,6.53
2023-05-18T04:33:47.679Z,5.97
2023-05-18T04:36:21.217Z,6.20
2023-05-18T04:38:51.423Z,5.97
2023-05-18T04:41:22.243Z,6.10
2023-05-18T04:43:51.437Z,6.87
2023-05-18T04:46:19.765Z,6.83
2023-05-18T04:48:50.066Z,7.27
2023-05-18T04:51:21.827Z,6.70
2023-05-18T04:53:51.189Z,6.93
2023-05-18T04:56:20.610Z,7.57
2023-05-18T04:58:50.595Z,8.37
2023-05-18T05:01:19.905Z,8.17
2023-05-18T05:03:49.838Z,8.40
2023-05-18T05:06:18.195Z,6.90
2023-05-18T05:08:46.437Z,6.93
2023-05-18T05:11:14.605Z,6.70
2023-05-18T05:13:42.782Z,6.67
2023-05-18T05:16:13.022Z,7.77
2023-05-18T05:18:41.286Z,7.20
2023-05-18T05:21:10.921Z,8.90
2023-05-18T05:23:39.107Z,8.00
2023-05-18T05:26:07.451Z,9.90
2023-05-18T05:28:35.937Z,9.40
2023-05-18T05:31:04.593Z,9.83
2023-05-18T05:33:35.316Z,7.33
2023-05-18T05:36:05.303Z,10.37
2023-05-18T05:38:34.136Z,9.33
2023-05-18T05:41:02.720Z,6.87
2023-05-18T05:43:30.999Z,11.27
2023-05-18T05:45:59.216Z,9.97
2023-05-18T05:48:27.377Z,10.90
2023-05-18T05:50:56.905Z,7.23
2023-05-18T05:53:25.208Z,8.87
2023-05-18T05:55:54.210Z,7.83
2023-05-18T05:58:22.522Z,6.37
2023-05-18T06:00:55.899Z,7.20
2023-05-18T06:03:24.387Z,8.50
2023-05-18T06:05:52.976Z,6.73
2023-05-18T06:08:25.181Z,7.53
2023-05-18T06:10:53.744Z,8.00
2023-05-18T06:13:21.851Z,5.97
2023-05-18T06:15:52.663Z,6.70
2023-05-18T06:18:21.548Z,6.20
2023-05-18T06:20:51.164Z,5.87
2023-05-18T06:23:22.842Z,6.27
2023-05-18T06:26:04.347Z,8.60
2023-05-18T06:28:35.296Z,8.33
2023-05-18T06:31:13.947Z,6.20
2023-05-18T06:33:55.739Z,7.30
2023-05-18T06:36:24.214Z,6.77
2023-05-18T06:38:52.381Z,7.67
2023-05-18T06:41:22.475Z,6.00
2023-05-18T06:43:51.225Z,6.07
2023-05-18T06:46:31.647Z,5.40
2023-05-18T06:49:02.699Z,6.20
2023-05-18T06:51:31.338Z,6.33
2023-05-18T06:53:59.625Z,6.17
2023-05-18T06:56:29.233Z,6.10
2023-05-18T06:58:58.332Z,5.70
2023-05-18T07:01:29.230Z,6.20
2023-05-18T07:04:00.649Z,8.10
2023-05-18T07:06:28.853Z,6.37
2023-05-18T07:08:57.653Z,6.63
2023-05-18T07:11:28.066Z,7.23
2023-05-18T07:13:59.059Z,6.97
2023-05-18T07:16:27.868Z,4.97
2023-05-18T07:18:57.781Z,6.63
2023-05-18T07:21:26.215Z,4.93
2023-05-18T07:23:54.357Z,5.23
2023-05-18T07:26:23.402Z,4.27
2023-05-18T07:28:52.074Z,5.90
2023-05-18T07:31:22.235Z,5.60
2023-05-18T07:33:50.498Z,4.30
2023-05-18T07:36:18.631Z,3.80
2023-05-18T07:38:46.750Z,6.30
2023-05-18T07:41:14.908Z,5.67
2023-05-18T07:43:43.222Z,4.27
2023-05-18T07:46:11.377Z,5.37
2023-05-18T07:48:41.375Z,5.00
2023-05-18T07:51:09.634Z,3.80
2023-05-18T07:53:38.033Z,4.33
2023-05-18T07:56:07.051Z,5.90
2023-05-18T07:58:35.838Z,4.43
2023-05-18T08:01:04.029Z,5.23
2023-05-18T08:03:32.292Z,4.80
2023-05-18T08:06:01.840Z,4.63
2023-05-18T08:08:29.987Z,4.10
2023-05-18T08:10:58.513Z,4.60
2023-05-18T08:13:26.661Z,5.80
2023-05-18T08:16:09.842Z,4.87
2023-05-18T08:18:39.801Z,4.70
2023-05-18T08:21:10.176Z,4.23
2023-05-18T08:23:39.291Z,3.97
2023-05-18T08:26:08.285Z,8.90
2023-05-18T08:28:37.122Z,4.23
2023-05-18T08:31:05.278Z,4.40
2023-05-18T08:33:33.538Z,4.37
2023-05-18T08:36:01.713Z,4.27
2023-05-18T08:38:31.909Z,4.70
2023-05-18T08:41:07.079Z,3.67
2023-05-18T08:43:39.323Z,6.40
2023-05-18T08:46:15.264Z,4.33
2023-05-18T08:48:46.867Z,4.07
2023-05-18T08:51:19.688Z,4.30
2023-05-18T08:53:53.488Z,3.53
2023-05-18T08:56:24.434Z,4.27
2023-05-18T08:58:56.158Z,5.23
2023-05-18T09:01:29.132Z,6.50
2023-05-18T09:03:58.353Z,4.37
2023-05-18T09:06:28.495Z,4.77
2023-05-18T09:08:58.770Z,5.17
2023-05-18T09:11:28.249Z,4.30
2023-05-18T09:13:56.530Z,4.70
2023-05-18T09:16:24.882Z,3.87
2023-05-18T09:18:53.241Z,4.33
2023-05-18T09:21:21.456Z,4.83
2023-05-18T09:23:49.697Z,5.10
2023-05-18T09:26:21.086Z,3.70
2023-05-18T09:28:53.619Z,4.23
2023-05-18T09:31:24.611Z,5.00
2023-05-18T09:33:53.868Z,4.10
2023-05-18T09:36:26.846Z,6.03
2023-05-18T09:38:55.125Z,5.07
2023-05-18T09:41:27.876Z,4.40
2023-05-18T09:43:56.239Z,4.50
2023-05-18T09:46:24.469Z,4.50
2023-05-18T09:48:53.944Z,5.47
2023-05-18T09:51:25.381Z,4.63
2023-05-18T09:53:55.581Z,4.40
2023-05-18T09:56:25.883Z,4.87
2023-05-18T09:58:54.286Z,4.63
2023-05-18T10:01:23.123Z,3.87
2023-05-18T10:03:51.445Z,3.57
2023-05-18T10:06:21.358Z,3.90
2023-05-18T10:08:50.061Z,4.50
2023-05-18T10:11:21.972Z,3.47
2023-05-18T10:13:55.566Z,4.10
2023-05-18T10:16:26.238Z,3.87
2023-05-18T10:18:56.476Z,5.53
2023-05-18T10:21:29.400Z,4.20
2023-05-18T10:23:58.317Z,5.83
2023-05-18T10:26:29.776Z,5.77
2023-05-18T10:29:01.391Z,3.73
2023-05-18T10:31:32.274Z,3.10
2023-05-18T10:34:01.544Z,3.80
2023-05-18T10:36:32.752Z,4.73
2023-05-18T10:39:01.901Z,3.70
2023-05-18T10:41:32.529Z,5.30
2023-05-18T10:44:04.180Z,4.10
2023-05-18T10:46:33.190Z,3.70
2023-05-18T10:49:04.947Z,4.23
2023-05-18T10:51:33.629Z,3.53
2023-05-18T10:54:13.268Z,3.60
2023-05-18T10:56:44.801Z,4.00
2023-05-18T10:59:15.230Z,6.80
2023-05-18T11:01:44.569Z,4.13
2023-05-18T11:04:13.041Z,4.57
2023-05-18T11:06:41.497Z,4.27
2023-05-18T11:09:09.852Z,4.00
2023-05-18T11:11:55.881Z,4.20
2023-05-18T11:14:29.574Z,3.90
2023-05-18T11:17:19.016Z,4.17
2023-05-18T11:20:13.040Z,3.80
2023-05-18T11:22:47.443Z,3.37
2023-05-18T11:25:37.818Z,5.43
2023-05-18T11:28:07.803Z,5.17
2023-05-18T11:30:51.476Z,5.07
2023-05-18T11:33:28.618Z,3.70
2023-05-18T11:36:03.011Z,4.60
2023-05-18T11:38:51.745Z,5.47
2023-05-18T11:41:34.596Z,4.17
2023-05-18T11:44:09.997Z,3.70
2023-05-18T11:46:41.641Z,4.20
2023-05-18T11:49:09.943Z,4.53
2023-05-18T11:51:58.581Z,4.53
2023-05-18T11:54:27.709Z,3.80
2023-05-18T11:56:56.374Z,4.00
2023-05-18T11:59:35.708Z,4.57
2023-05-18T12:02:06.249Z,4.40
2023-05-18T12:04:35.139Z,4.13
2023-05-18T12:07:08.010Z,4.23
2023-05-18T12:09:36.735Z,3.67
2023-05-18T12:12:05.215Z,4.57
2023-05-18T12:14:36.098Z,3.73
2023-05-18T12:17:06.462Z,3.17
2023-05-18T12:19:39.536Z,4.90
2023-05-18T12:22:10.219Z,4.30
2023-05-18T12:24:39.278Z,4.00
2023-05-18T12:27:08.594Z,4.90
2023-05-18T12:29:40.249Z,4.27
2023-05-18T12:32:11.945Z,4.33
2023-05-18T12:34:40.761Z,4.70
2023-05-18T12:37:08.926Z,4.03
2023-05-18T12:39:37.771Z,4.20
2023-05-18T12:42:13.509Z,4.00
2023-05-18T12:44:44.771Z,5.83
2023-05-18T12:47:15.091Z,4.40
2023-05-18T12:49:48.951Z,4.20
2023-05-18T12:52:17.838Z,3.60
2023-05-18T12:54:58.706Z,4.07
2023-05-18T12:57:27.825Z,4.00
2023-05-18T12:59:56.343Z,3.87
2023-05-18T13:02:37.434Z,5.30
2023-05-18T13:05:10.105Z,3.53
2023-05-18T13:07:39.957Z,4.13
2023-05-18T13:10:09.840Z,3.43
2023-05-18T13:12:46.206Z,4.43
2023-05-18T13:15:17.119Z,4.87
2023-05-18T13:18:02.978Z,3.20
2023-05-18T13:20:36.002Z,5.30
2023-05-18T13:23:05.994Z,4.10
2023-05-18T13:25:34.283Z,3.90
2023-05-18T13:28:02.575Z,4.47
2023-05-18T13:30:30.886Z,4.03
2023-05-18T13:33:00.100Z,3.50
2023-05-18T13:35:29.785Z,3.67
2023-05-18T13:37:58.127Z,4.77
2023-05-18T13:40:26.164Z,4.10
2023-05-18T13:42:54.499Z,4.10
2023-05-18T13:45:22.820Z,3.70
2023-05-18T13:47:51.904Z,4.17
2023-05-18T13:50:20.950Z,3.17
2023-05-18T13:52:50.851Z,3.57
2023-05-18T13:55:19.665Z,3.77
2023-05-18T13:57:47.801Z,4.30
2023-05-18T14:00:17.300Z,3.60
2023-05-18T14:02:46.186Z,3.70
2023-05-18T14:05:15.236Z,6.77
2023-05-18T14:07:44.471Z,4.07
2023-05-18T14:10:15.459Z,3.50
2023-05-18T14:12:43.603Z,3.63
2023-05-18T14:15:13.776Z,3.53
2023-05-18T14:17:42.537Z,3.63
2023-05-18T14:20:11.549Z,3.50
2023-05-18T14:22:39.786Z,3.23
2023-05-18T14:25:08.479Z,3.63
2023-05-18T14:27:38.197Z,3.20
2023-05-18T14:30:07.591Z,3.60
2023-05-18T14:32:35.980Z,3.70
2023-05-18T14:35:04.321Z,3.70
2023-05-18T14:37:32.987Z,3.77
2023-05-18T14:40:01.338Z,4.17
2023-05-18T14:42:29.573Z,3.70
2023-05-18T14:44:59.074Z,3.30
2023-05-18T14:47:27.591Z,3.50
2023-05-18T14:49:55.810Z,3.60
2023-05-18T14:52:24.171Z,3.30
2023-05-18T14:54:52.473Z,3.80
2023-05-18T14:57:20.647Z,3.07
2023-05-18T14:59:48.846Z,3.37
2023-05-18T15:02:18.621Z,3.53
2023-05-18T15:04:46.807Z,2.60
2023-05-18T15:07:14.947Z,3.53
2023-05-18T15:09:43.050Z,3.40
2023-05-18T15:12:11.507Z,3.10
2023-05-18T15:14:39.612Z,2.40
2023-05-18T15:17:13.543Z,2.70
2023-05-18T15:19:43.191Z,2.70
2023-05-18T15:22:11.408Z,2.73
2023-05-18T15:24:39.694Z,2.57
2023-05-18T15:27:08.808Z,5.60
2023-05-18T15:29:36.916Z,4.90
2023-05-18T15:32:05.672Z,3.10
2023-05-18T15:34:33.834Z,3.10
2023-05-18T15:37:03.409Z,3.10
2023-05-18T15:39:31.667Z,3.33
2023-05-18T15:41:59.931Z,2.83
2023-05-18T15:44:29.576Z,2.83
2023-05-18T15:46:58.471Z,2.80
2023-05-18T15:49:26.614Z,2.63
2023-05-18T15:51:54.972Z,2.70
2023-05-18T15:54:24.516Z,2.70
2023-05-18T15:56:52.673Z,3.53
2023-05-18T15:59:20.870Z,2.70
2023-05-18T16:01:49.131Z,3.67
2023-05-18T16:04:17.387Z,2.43
2023-05-18T16:06:45.642Z,3.07
2023-05-18T16:09:13.862Z,2.90
2023-05-18T16:11:43.408Z,2.73
2023-05-18T16:14:11.592Z,3.00
2023-05-18T16:16:39.834Z,2.57
2023-05-18T16:19:08.726Z,3.73
2023-05-18T16:21:37.833Z,3.93
2023-05-18T16:24:06.916Z,2.70
2023-05-18T16:26:35.551Z,3.20
2023-05-18T16:29:06.164Z,2.63
2023-05-18T16:31:35.366Z,3.13
2023-05-18T16:34:04.570Z,2.57
2023-05-18T16:36:32.856Z,2.60
2023-05-18T16:39:02.889Z,2.83
2023-05-18T16:41:31.071Z,2.87
2023-05-18T16:43:59.193Z,2.93
2023-05-18T16:46:30.313Z,2.47
2023-05-18T16:48:58.448Z,2.70
2023-05-18T16:51:27.499Z,3.40
2023-05-18T16:53:55.836Z,2.80
2023-05-18T16:56:25.322Z,3.10
2023-05-18T16:58:53.872Z,3.53
2023-05-18T17:01:28.010Z,2.80
2023-05-18T17:03:58.724Z,2.80
2023-05-18T17:06:27.447Z,3.17
2023-05-18T17:08:58.516Z,2.90
2023-05-18T17:11:27.712Z,3.50
2023-05-18T17:13:57.680Z,2.87
2023-05-18T17:16:26.747Z,2.77
2023-05-18T17:18:56.114Z,2.67
2023-05-18T17:21:28.198Z,3.80
2023-05-18T17:23:56.585Z,3.20
2023-05-18T17:26:30.274Z,2.97
2023-05-18T17:28:58.493Z,3.10
2023-05-18T17:31:26.952Z,3.40
2023-05-18T17:33:55.248Z,3.80
2023-05-18T17:36:25.637Z,4.10
2023-05-18T17:38:53.870Z,3.37
2023-05-18T17:41:22.500Z,3.83
2023-05-18T17:43:50.616Z,3.23
2023-05-18T17:46:18.811Z,3.73
2023-05-18T17:48:47.458Z,3.93
2023-05-18T17:51:15.580Z,3.67
2023-05-18T17:53:45.709Z,3.37
2023-05-18T17:56:13.850Z,3.10
2023-05-18T17:58:41.839Z,3.47
2023-05-18T18:01:11.979Z,3.30
2023-05-18T18:03:40.395Z,3.10
2023-05-18T18:06:08.981Z,3.07
2023-05-18T18:08:37.807Z,4.00
2023-05-18T18:11:09.186Z,2.73
2023-05-18T18:13:37.777Z,2.80
2023-05-18T18:16:06.779Z,2.97
2023-05-18T18:18:36.816Z,2.87
2023-05-18T18:21:05.929Z,3.33
2023-05-18T18:23:34.171Z,3.73
2023-05-18T18:26:02.681Z,2.73
2023-05-18T18:28:32.724Z,2.70
2023-05-18T18:31:01.133Z,3.07
2023-05-18T18:33:29.966Z,2.90
2023-05-18T18:35:58.840Z,2.63
2023-05-18T18:38:28.794Z,2.90
2023-05-18T18:41:01.227Z,2.77
2023-05-18T18:43:30.981Z,3.33
2023-05-18T18:45:59.253Z,3.43
2023-05-18T18:48:27.610Z,2.47
2023-05-18T18:50:56.318Z,3.63
2023-05-18T18:53:24.479Z,4.90
2023-05-18T18:55:52.687Z,2.63
2023-05-18T18:58:24.102Z,3.43
2023-05-18T19:00:53.658Z,2.90
2023-05-18T19:03:22.568Z,3.23
2023-05-18T19:05:51.145Z,3.50
2023-05-18T19:08:19.221Z,2.77
2023-05-18T19:10:47.293Z,4.00
2023-05-18T19:13:15.435Z,3.40
2023-05-18T19:15:43.471Z,4.23
2023-05-18T19:18:13.078Z,3.60
2023-05-18T19:20:41.203Z,2.83
2023-05-18T19:23:09.294Z,2.63
2023-05-18T19:25:37.364Z,2.63
2023-05-18T19:28:06.320Z,2.63
2023-05-18T19:30:34.643Z,2.63
2023-05-18T19:33:02.809Z,2.80
2023-05-18T19:35:33.760Z,3.10
2023-05-18T19:38:02.489Z,2.50
2023-05-18T19:40:30.712Z,3.93
2023-05-18T19:42:59.829Z,3.37
2023-05-18T19:45:28.000Z,2.80
2023-05-18T19:47:56.120Z,2.60
2023-05-18T19:50:25.371Z,2.33
2023-05-18T19:52:55.087Z,3.20
2023-05-18T19:55:23.261Z,2.60
2023-05-18T19:57:51.305Z,2.43
2023-05-18T20:00:19.432Z,2.83
2023-05-18T20:02:47.498Z,2.43
2023-05-18T20:05:18.888Z,3.03
2023-05-18T20:07:47.288Z,2.87
2023-05-18T20:10:16.809Z,2.90
2023-05-18T20:12:45.042Z,2.87
2023-05-18T20:15:13.692Z,2.87
2023-05-18T20:17:42.718Z,2.93
2023-05-18T20:20:12.182Z,2.30
2023-05-18T20:22:40.662Z,4.93
2023-05-18T20:25:09.612Z,2.63
2023-05-18T20:27:39.349Z,3.10
2023-05-18T20:30:08.732Z,3.00
2023-05-18T20:32:36.984Z,3.17
2023-05-18T20:35:05.611Z,3.20
2023-05-18T20:37:34.482Z,4.07
2023-05-18T20:40:07.200Z,3.23
2023-05-18T20:42:38.751Z,2.97
2023-05-18T20:45:08.743Z,3.30
2023-05-18T20:47:36.893Z,3.00
2023-05-18T20:50:05.416Z,2.90
2023-05-18T20:52:33.479Z,4.03
2023-05-18T20:55:01.569Z,3.70
2023-05-18T20:57:29.971Z,4.00
2023-05-18T20:59:58.148Z,2.90
2023-05-18T21:02:27.669Z,3.30
2023-05-18T21:04:57.731Z,4.00
2023-05-18T21:07:25.875Z,3.63
2023-05-18T21:09:53.905Z,3.83
2023-05-18T21:12:22.114Z,3.43
2023-05-18T21:14:50.392Z,3.77
2023-05-18T21:17:18.447Z,4.43
2023-05-18T21:19:47.934Z,8.47
2023-05-18T21:22:16.024Z,3.73
2023-05-18T21:24:44.114Z,4.53
2023-05-18T21:27:12.160Z,4.77
2023-05-18T21:29:40.295Z,4.50
2023-05-18T21:32:08.971Z,4.87
2023-05-18T21:34:37.216Z,4.63
2023-05-18T21:37:07.991Z,4.17
2023-05-18T21:39:36.141Z,6.07
2023-05-18T21:42:04.558Z,5.60
2023-05-18T21:44:33.399Z,4.17
2023-05-18T21:47:01.528Z,4.37
2023-05-18T21:49:29.571Z,4.20
2023-05-18T21:51:58.134Z,5.97
2023-05-18T21:54:30.684Z,4.73
2023-05-18T21:57:00.322Z,6.00
2023-05-18T21:59:28.430Z,5.50
2023-05-18T22:01:56.541Z,5.10
2023-05-18T22:04:24.705Z,4.53
2023-05-18T22:06:54.385Z,4.50
2023-05-18T22:09:22.515Z,3.83
2023-05-18T22:11:51.913Z,7.20
2023-05-18T22:14:19.981Z,5.70
2023-05-18T22:16:48.357Z,5.77
2023-05-18T22:19:16.518Z,4.87
2023-05-18T22:21:44.651Z,4.87
2023-05-18T22:24:12.725Z,3.93
2023-05-18T22:26:41.050Z,8.63
2023-05-18T22:29:10.602Z,5.10
2023-05-18T22:31:38.899Z,4.00
2023-05-18T22:34:07.032Z,4.90
2023-05-18T22:36:35.330Z,4.40
2023-05-18T22:39:03.606Z,4.40
2023-05-18T22:41:31.690Z,4.33
2023-05-18T22:43:59.775Z,4.70
2023-05-18T22:46:29.429Z,4.90
2023-05-18T22:48:57.563Z,3.93
2023-05-18T22:51:26.274Z,6.03
2023-05-18T22:53:54.398Z,7.20
2023-05-18T22:56:22.807Z,5.20
2023-05-18T22:58:51.496Z,5.03
2023-05-18T23:01:19.634Z,6.23
2023-05-18T23:03:49.078Z,4.30
2023-05-18T23:06:17.472Z,5.00
2023-05-18T23:08:46.289Z,4.73
2023-05-18T23:11:18.420Z,5.50
2023-05-18T23:13:46.572Z,4.87
2023-05-18T23:16:15.059Z,4.00
2023-05-18T23:18:45.352Z,4.73
2023-05-18T23:21:14.850Z,5.27
2023-05-18T23:23:45.468Z,4.57
2023-05-18T23:26:13.640Z,4.67
2023-05-18T23:28:41.846Z,4.90
2023-05-18T23:31:10.009Z,4.50
2023-05-18T23:33:38.890Z,6.83
2023-05-18T23:36:08.315Z,5.93
2023-05-18T23:38:38.606Z,5.37
2023-05-18T23:41:07.332Z,4.23
2023-05-18T23:43:35.944Z,8.90
2023-05-18T23:46:05.012Z,5.47
2023-05-18T23:48:33.942Z,5.03
2023-05-18T23:51:04.695Z,4.20
2023-05-18T23:53:34.015Z,6.43
2023-05-18T23:56:03.979Z,4.60
2023-05-18T23:58:33.156Z,4.77
